Urb Riveras del Bucana, Puerto Rico
Current Conditions -  °F | °C
As of 10:50 AM on Thursday 23 Oct 2014 (Local Time) from TJBQ Reporting Station
Scattered Clouds Scattered Clouds  
Wind Chill: 86°   Ceiling: Unl
Heat Index: 93°   Visibility: 10mi
Dew Point: 73°   Wind: 5mph
Humidity: 66%   Direction: 300°WNW
Pressure: 29.96"   Gusts: NA
Location:  18.0179°N, 66.6229°W
Report Text: TJBQ 231450Z 30004KT 10SM SCT050 30/23 A2996 RMK RWY 08- ATIS F
Loading
Personal Weather Stations






























Interactive Weather Map
Tropical Storm Tracking
New forecast layout! Learn more

10-Day Weather Forecast

Advertisements
Track Severe Weather on mobile